createdAt,value
2023-02-04T00:00:37.490Z,3.30
2023-02-04T00:04:40.564Z,2.80
2023-02-04T00:08:43.323Z,1.13
2023-02-04T00:12:46.088Z,1.00
2023-02-04T00:16:50.206Z,1.30
2023-02-04T00:20:53.050Z,1.02
2023-02-04T00:24:55.920Z,1.20
2023-02-04T00:28:58.712Z,2.72
2023-02-04T00:33:02.883Z,2.30
2023-02-04T00:37:05.722Z,1.17
2023-02-04T00:41:08.531Z,1.85
2023-02-04T00:45:11.568Z,3.95
2023-02-04T00:49:15.934Z,2.22
2023-02-04T00:53:18.740Z,1.67
2023-02-04T00:57:21.571Z,1.10
2023-02-04T01:01:24.423Z,1.73
2023-02-04T01:05:28.625Z,1.33
2023-02-04T01:09:31.355Z,2.55
2023-02-04T01:13:34.085Z,1.98
2023-02-04T01:17:36.835Z,1.50
2023-02-04T01:21:41.265Z,1.83
2023-02-04T01:25:44.216Z,1.90
2023-02-04T01:29:47.033Z,2.33
2023-02-04T01:33:49.841Z,1.38
2023-02-04T01:37:55.337Z,0.60
2023-02-04T01:41:58.212Z,0.60
2023-02-04T01:46:02.579Z,1.38
2023-02-04T01:50:06.201Z,4.22
2023-02-04T01:54:12.863Z,9.38
2023-02-04T01:58:16.452Z,7.32
2023-02-04T02:02:41.706Z,5.78
2023-02-04T02:06:49.318Z,3.53
2023-02-04T02:10:53.525Z,4.22
2023-02-04T02:14:56.691Z,5.53
2023-02-04T02:19:00.043Z,7.78
2023-02-04T02:23:07.590Z,10.85
2023-02-04T02:27:12.827Z,6.88
2023-02-04T02:31:16.135Z,4.37
2023-02-04T02:35:19.302Z,6.40
2023-02-04T02:39:22.789Z,5.85
2023-02-04T02:43:29.409Z,7.75
2023-02-04T02:47:32.308Z,8.50
2023-02-04T02:51:35.213Z,10.23
2023-02-04T02:55:38.748Z,12.75
2023-02-04T02:59:43.662Z,4.95
2023-02-04T03:03:50.355Z,7.28
2023-02-04T03:07:53.294Z,12.88
2023-02-04T03:11:56.283Z,7.43
2023-02-04T03:16:01.347Z,14.40
2023-02-04T03:20:06.448Z,6.05
2023-02-04T03:24:09.991Z,8.98
2023-02-04T03:28:13.816Z,8.80
2023-02-04T03:32:18.286Z,11.88
2023-02-04T03:36:21.055Z,9.05
2023-02-04T03:40:23.895Z,13.30
2023-02-04T03:44:27.064Z,11.55
2023-02-04T03:48:31.272Z,7.90
2023-02-04T03:52:34.044Z,20.70
2023-02-04T03:56:36.859Z,13.88
2023-02-04T04:00:39.872Z,17.85
2023-02-04T04:04:44.233Z,12.20
2023-02-04T04:08:47.035Z,10.23
2023-02-04T04:12:49.803Z,12.60
2023-02-04T04:16:52.564Z,11.88
2023-02-04T04:20:56.684Z,8.50
2023-02-04T04:24:59.604Z,14.00
2023-02-04T04:29:02.388Z,16.45
2023-02-04T04:33:05.215Z,14.18
2023-02-04T04:37:09.379Z,11.23
2023-02-04T04:41:12.176Z,14.48
2023-02-04T04:45:15.394Z,10.35
2023-02-04T04:49:18.217Z,13.60
2023-02-04T04:53:22.418Z,12.63
2023-02-04T04:57:25.275Z,9.68
2023-02-04T05:01:28.065Z,14.73
2023-02-04T05:05:30.908Z,13.43
2023-02-04T05:09:35.174Z,14.80
2023-02-04T05:13:37.951Z,23.70
2023-02-04T05:17:40.756Z,9.68
2023-02-04T05:21:44.626Z,10.77
2023-02-04T05:25:48.836Z,19.98
2023-02-04T05:29:51.622Z,13.75
2023-02-04T05:33:54.555Z,14.60
2023-02-04T05:37:57.309Z,18.90
2023-02-04T05:42:01.550Z,11.07
2023-02-04T05:46:04.729Z,16.17
2023-02-04T05:50:08.594Z,11.00
2023-02-04T05:54:11.378Z,20.75
2023-02-04T05:58:15.566Z,19.38
2023-02-04T06:02:18.486Z,12.82
2023-02-04T06:06:21.241Z,16.60
2023-02-04T06:10:24.032Z,17.92
2023-02-04T06:14:28.208Z,18.52
2023-02-04T06:18:31.060Z,13.35
2023-02-04T06:22:33.903Z,11.50
2023-02-04T06:26:36.753Z,12.77
2023-02-04T06:30:41.044Z,14.45
2023-02-04T06:34:43.985Z,16.33
2023-02-04T06:38:46.790Z,20.65
2023-02-04T06:42:49.617Z,17.73
2023-02-04T06:46:53.758Z,12.30
2023-02-04T06:50:56.504Z,12.90
2023-02-04T06:54:59.294Z,14.77
2023-02-04T06:59:03.366Z,20.58
2023-02-04T07:03:08.211Z,20.25
2023-02-04T07:07:11.636Z,9.93
2023-02-04T07:11:14.484Z,12.75
2023-02-04T07:15:17.497Z,8.85
2023-02-04T07:19:22.965Z,8.13
2023-02-04T07:23:27.988Z,13.15
2023-02-04T07:27:30.870Z,16.25
2023-02-04T07:31:33.830Z,16.63
2023-02-04T07:35:38.925Z,12.38
2023-02-04T07:39:41.842Z,8.07
2023-02-04T07:43:44.784Z,11.75
2023-02-04T07:47:47.591Z,10.82
2023-02-04T07:51:51.773Z,20.40
2023-02-04T07:55:54.590Z,12.30
2023-02-04T07:59:57.744Z,9.65
2023-02-04T08:04:00.570Z,9.63
2023-02-04T08:08:04.774Z,12.63
2023-02-04T08:12:07.669Z,11.73
2023-02-04T08:16:11.913Z,11.30
2023-02-04T08:20:14.829Z,13.48
2023-02-04T08:24:19.062Z,15.82
2023-02-04T08:28:21.936Z,7.88
2023-02-04T08:32:24.729Z,10.88
2023-02-04T08:36:27.497Z,9.30
2023-02-04T08:40:32.126Z,11.88
2023-02-04T08:44:35.105Z,10.00
2023-02-04T08:48:37.924Z,15.48
2023-02-04T08:52:40.736Z,11.88
2023-02-04T08:56:44.896Z,11.27
2023-02-04T09:00:47.750Z,9.90
2023-02-04T09:04:50.967Z,10.07
2023-02-04T09:08:53.744Z,10.57
2023-02-04T09:12:57.941Z,11.90
2023-02-04T09:17:01.303Z,14.65
2023-02-04T09:21:04.234Z,6.82
2023-02-04T09:25:07.824Z,13.45
2023-02-04T09:29:11.973Z,11.25
2023-02-04T09:33:16.541Z,16.48
2023-02-04T09:37:19.358Z,8.13
2023-02-04T09:41:22.219Z,14.98
2023-02-04T09:45:28.287Z,13.02
2023-02-04T09:49:31.219Z,14.40
2023-02-04T09:53:35.218Z,13.70
2023-02-04T09:57:37.990Z,15.15
2023-02-04T10:01:42.294Z,14.25
2023-02-04T10:05:46.462Z,9.48
2023-02-04T10:09:50.503Z,14.02
2023-02-04T10:13:55.914Z,7.63
2023-02-04T10:18:04.355Z,8.73
2023-02-04T10:22:16.912Z,9.05
2023-02-04T10:26:21.769Z,9.40
2023-02-04T10:30:26.611Z,13.15
2023-02-04T10:34:37.876Z,9.40
2023-02-04T10:38:40.837Z,16.02
2023-02-04T10:42:51.704Z,8.68
2023-02-04T10:47:00.610Z,11.52
2023-02-04T10:51:05.128Z,15.50
2023-02-04T10:55:13.456Z,9.15
2023-02-04T10:59:26.701Z,9.02
2023-02-04T11:03:31.740Z,10.38
2023-02-04T11:08:31.891Z,6.30
2023-02-04T11:12:42.863Z,6.80
2023-02-04T11:16:49.349Z,9.40
2023-02-04T11:20:54.307Z,4.05
2023-02-04T11:24:58.167Z,6.00
2023-02-04T11:29:27.493Z,7.38
2023-02-04T11:33:39.671Z,4.78
2023-02-04T11:37:45.060Z,4.85
2023-02-04T11:41:48.206Z,6.47
2023-02-04T11:46:03.417Z,6.15
2023-02-04T11:50:15.931Z,5.78
2023-02-04T11:54:21.361Z,6.85
2023-02-04T11:58:26.050Z,5.03
2023-02-04T12:02:43.347Z,7.75
2023-02-04T12:06:57.617Z,10.23
2023-02-04T12:11:03.501Z,7.20
2023-02-04T12:15:16.076Z,6.78
2023-02-04T12:19:20.236Z,7.00
2023-02-04T12:23:23.187Z,4.13
2023-02-04T12:27:25.993Z,3.95
2023-02-04T12:31:28.862Z,2.35
2023-02-04T12:35:33.335Z,4.82
2023-02-04T12:39:36.324Z,4.40
2023-02-04T12:43:39.051Z,5.00
2023-02-04T12:47:43.206Z,9.32
2023-02-04T12:51:47.366Z,5.22
2023-02-04T12:55:50.261Z,4.95
2023-02-04T12:59:57.821Z,8.07
2023-02-04T13:04:00.625Z,6.55
2023-02-04T13:08:05.017Z,3.33
2023-02-04T13:12:07.999Z,4.80
2023-02-04T13:16:10.789Z,3.65
2023-02-04T13:20:14.266Z,3.50
2023-02-04T13:24:18.390Z,6.28
2023-02-04T13:28:21.190Z,9.13
2023-02-04T13:32:24.135Z,6.55
2023-02-04T13:36:28.400Z,5.80
2023-02-04T13:40:33.079Z,7.45
2023-02-04T13:44:35.918Z,3.83
2023-02-04T13:48:38.711Z,9.02
2023-02-04T13:52:41.544Z,6.90
2023-02-04T13:56:45.773Z,9.95
2023-02-04T14:00:48.545Z,2.78
2023-02-04T14:04:51.365Z,4.70
2023-02-04T14:08:54.151Z,3.28
2023-02-04T14:12:58.809Z,2.60
2023-02-04T14:17:01.630Z,5.03
2023-02-04T14:21:04.750Z,5.60
2023-02-04T14:25:09.859Z,1.63
2023-02-04T14:29:15.192Z,5.63
2023-02-04T14:33:21.158Z,3.22
2023-02-04T14:37:28.756Z,3.60
2023-02-04T15:03:44.700Z,4.55
2023-02-04T15:07:48.090Z,2.78
2023-02-04T15:11:53.377Z,2.40
2023-02-04T15:15:56.187Z,3.45
2023-02-04T15:20:00.536Z,2.60
2023-02-04T15:24:03.494Z,4.28
2023-02-04T15:28:06.681Z,1.65
2023-02-04T15:32:10.060Z,3.92
2023-02-04T15:36:14.231Z,6.68
2023-02-04T15:40:20.096Z,3.38
2023-02-04T15:44:24.351Z,2.88
2023-02-04T15:48:31.413Z,5.65
2023-02-04T15:52:36.331Z,2.38
2023-02-04T15:56:40.116Z,3.25
2023-02-04T16:00:43.950Z,1.85
2023-02-04T16:04:50.848Z,2.97
2023-02-04T16:08:55.664Z,2.95
2023-02-04T16:12:58.937Z,2.28
2023-02-04T16:17:03.143Z,2.33
2023-02-04T16:21:07.369Z,3.42
2023-02-04T16:25:12.428Z,3.78
2023-02-04T16:29:15.282Z,5.28
2023-02-04T16:33:18.078Z,5.35
2023-02-04T16:37:21.047Z,2.22
2023-02-04T16:41:25.167Z,3.63
2023-02-04T16:45:28.416Z,4.95
2023-02-04T16:49:31.144Z,4.90
2023-02-04T16:53:33.936Z,4.28
2023-02-04T16:57:38.122Z,4.57
2023-02-04T17:01:43.037Z,5.05
2023-02-04T17:05:45.901Z,5.95
2023-02-04T17:09:48.704Z,5.32
2023-02-04T17:14:00.356Z,6.03
2023-02-04T17:18:05.403Z,5.72
2023-02-04T17:22:09.401Z,9.43
2023-02-04T17:26:12.197Z,13.80
2023-02-04T17:30:17.233Z,13.40
2023-02-04T17:34:20.078Z,11.98
2023-02-04T17:38:23.710Z,7.65
2023-02-04T17:42:27.213Z,12.63
2023-02-04T17:46:33.544Z,13.32
2023-02-04T17:50:40.026Z,9.13
2023-02-04T17:54:45.055Z,7.63
2023-02-04T17:58:49.787Z,6.45
2023-02-04T18:02:53.978Z,8.18
2023-02-04T18:06:59.415Z,5.30
2023-02-04T18:11:02.238Z,5.23
2023-02-04T18:15:25.395Z,6.82
2023-02-04T18:19:31.997Z,6.22
2023-02-04T18:23:35.267Z,6.20
2023-02-04T18:27:38.505Z,6.97
2023-02-04T18:31:51.088Z,6.22
2023-02-04T18:35:59.531Z,5.88
2023-02-04T18:40:22.681Z,4.55
2023-02-04T18:44:31.661Z,8.05
2023-02-04T18:49:02.893Z,4.28
2023-02-04T18:53:23.792Z,6.32
2023-02-04T18:57:35.104Z,7.68
2023-02-04T19:01:42.353Z,5.78
2023-02-04T19:05:48.829Z,8.75
2023-02-04T19:09:52.962Z,6.00
2023-02-04T19:13:57.997Z,5.63
2023-02-04T19:18:16.931Z,13.27
2023-02-04T19:22:21.427Z,12.52
2023-02-04T19:26:36.150Z,9.70
2023-02-04T19:30:46.397Z,9.13
2023-02-04T19:34:56.749Z,10.75
2023-02-04T19:39:01.791Z,11.18
2023-02-04T19:43:19.927Z,9.23
2023-02-04T19:47:30.528Z,13.68
2023-02-04T19:51:33.355Z,17.45
2023-02-04T19:55:51.441Z,13.93
2023-02-04T19:59:58.939Z,15.02
2023-02-04T20:04:02.918Z,27.90
2023-02-04T20:08:24.973Z,39.20
2023-02-04T20:12:31.577Z,32.53
2023-02-04T20:16:40.107Z,51.63
2023-02-04T20:20:46.073Z,42.05
2023-02-04T20:24:51.031Z,30.38
2023-02-04T20:28:55.554Z,38.63
2023-02-04T20:33:22.160Z,32.70
2023-02-04T20:37:28.133Z,22.30
2023-02-04T20:41:37.050Z,19.77
2023-02-04T20:45:47.732Z,17.65
2023-02-04T20:49:57.940Z,11.70
2023-02-04T20:54:07.301Z,8.90
2023-02-04T20:58:19.050Z,16.05
2023-02-04T21:02:21.860Z,28.98
2023-02-04T21:06:29.004Z,31.60
2023-02-04T21:10:33.812Z,25.90
2023-02-04T21:14:39.581Z,21.48
2023-02-04T21:18:42.456Z,30.67
2023-02-04T21:22:49.569Z,29.50
2023-02-04T21:26:52.440Z,18.20
2023-02-04T21:30:55.326Z,17.25
2023-02-04T21:35:00.230Z,15.57
2023-02-04T21:39:04.815Z,17.80
2023-02-04T21:43:12.971Z,12.25
2023-02-04T21:47:19.012Z,6.90
2023-02-04T21:51:23.604Z,9.10
2023-02-04T21:55:28.690Z,8.93
2023-02-04T21:59:31.553Z,14.80
2023-02-04T22:03:34.374Z,12.00
2023-02-04T22:07:38.085Z,12.82
2023-02-04T22:11:42.256Z,10.60
2023-02-04T22:15:48.881Z,10.70
2023-02-04T22:19:51.747Z,7.63
2023-02-04T22:23:54.514Z,9.77
2023-02-04T22:27:58.754Z,10.90
2023-02-04T22:32:02.149Z,8.43
2023-02-04T22:36:08.764Z,10.18
2023-02-04T22:40:14.469Z,8.13
2023-02-04T22:44:18.632Z,14.95
2023-02-04T22:48:21.445Z,10.27
2023-02-04T22:52:24.760Z,8.27
2023-02-04T22:56:27.780Z,8.55
2023-02-04T23:00:32.515Z,9.20
2023-02-04T23:04:35.284Z,8.77
2023-02-04T23:08:38.148Z,9.13
2023-02-04T23:12:40.896Z,9.93
2023-02-04T23:16:46.954Z,6.65
2023-02-04T23:20:49.809Z,13.10
2023-02-04T23:24:52.642Z,10.23
2023-02-04T23:28:55.653Z,10.75
2023-02-04T23:32:59.783Z,7.20
2023-02-04T23:37:02.707Z,6.78
2023-02-04T23:41:05.689Z,5.90
2023-02-04T23:45:09.305Z,6.32
2023-02-04T23:49:13.748Z,5.80
2023-02-04T23:53:18.838Z,6.25
2023-02-04T23:57:22.814Z,6.05
